Time;durP1;ratioP1;P1;durP2;ratioP2;P2;SDS_P1;SDS_P2;PMS_P1;PMS_P2;Temp;Humidity;BMP_temperature;BMP_pressure;BME280_temperature;BME280_humidity;BME280_pressure;Samples;Min_cycle;Max_cycle;Signal;HPM_P1;HPM_P2
2022/12/29 00:01:07;;;;;;;21.30;11.40;;;;;;;-0.60;93.48;101915.61;107951;1263;68616;-87
2022/12/29 00:03:36;;;;;;;21.30;11.50;;;;;;;-0.59;93.34;101912.16;107990;1258;73859;-86
2022/12/29 00:06:06;;;;;;;22.90;11.60;;;;;;;-0.58;93.27;101908.22;107898;1264;60801;-85
2022/12/29 00:08:41;;;;;;;22.70;12.10;;;;;;;-0.60;91.81;101908.23;107747;1266;59336;-86
2022/12/29 00:11:13;;;;;;;24.00;11.80;;;;;;;-0.56;91.36;101903.26;107777;1270;71695;-87
2022/12/29 00:16:32;;;;;;;22.10;11.10;;;;;;;-0.52;91.62;101886.45;107813;1266;68998;-86
2022/12/29 00:19:04;;;;;;;23.40;11.10;;;;;;;-0.42;91.91;101892.54;107760;1267;72259;-86
2022/12/29 00:35:32;;;;;;;21.90;11.60;;;;;;;-0.47;90.52;101902.84;107894;1266;71036;-87
2022/12/29 00:46:29;;;;;;;25.80;12.40;;;;;;;-0.67;90.99;101896.31;108067;1261;70844;-89
2022/12/29 00:51:46;;;;;;;27.10;11.70;;;;;;;-0.70;91.10;101896.16;107947;1270;72277;-83
2022/12/29 00:54:16;;;;;;;25.80;11.80;;;;;;;-0.72;91.36;101894.63;107939;1267;58924;-86
2022/12/29 00:56:51;;;;;;;23.40;11.50;;;;;;;-0.76;91.08;101890.73;107935;1258;61257;-86
2022/12/29 00:59:20;;;;;;;21.20;11.70;;;;;;;-0.81;90.93;101891.61;107806;1266;73476;-86
2022/12/29 01:01:51;;;;;;;21.50;10.60;;;;;;;-0.85;91.59;101882.92;108029;1255;70669;-86
2022/12/29 01:04:24;;;;;;;23.90;12.00;;;;;;;-0.85;91.90;101877.27;107972;1267;69638;-86
2022/12/29 01:06:53;;;;;;;22.20;11.70;;;;;;;-0.65;91.19;101876.44;107863;1271;71207;-84
2022/12/29 01:12:10;;;;;;;22.00;11.70;;;;;;;-0.68;90.19;101869.11;107968;1267;60377;-86
2022/12/29 01:14:40;;;;;;;20.50;11.00;;;;;;;-0.73;91.47;101864.36;107901;1270;73779;-85
2022/12/29 01:17:12;;;;;;;24.60;13.10;;;;;;;-0.81;90.80;101864.23;108109;1259;71717;-90
2022/12/29 01:19:41;;;;;;;21.10;11.30;;;;;;;-0.85;91.65;101864.44;107777;1265;68163;-89
2022/12/29 01:22:10;;;;;;;21.10;11.70;;;;;;;-0.89;92.13;101862.25;107923;1255;72184;-91
2022/12/29 01:24:39;;;;;;;28.60;13.20;;;;;;;-0.94;91.70;101859.71;107815;1266;59884;-91
2022/12/29 01:27:08;;;;;;;23.00;13.00;;;;;;;-1.00;92.70;101858.55;107989;1267;60206;-91
2022/12/29 01:29:36;;;;;;;20.40;11.50;;;;;;;-1.07;92.41;101858.77;107759;1266;74824;-88
2022/12/29 01:32:06;;;;;;;22.40;11.50;;;;;;;-1.12;93.01;101854.01;107968;1258;71188;-88
2022/12/29 01:34:35;;;;;;;24.30;11.80;;;;;;;-1.20;93.03;101849.44;107973;1261;71574;-88
2022/12/29 01:37:04;;;;;;;23.60;11.90;;;;;;;-1.26;92.64;101850.66;107989;1263;72204;-89
2022/12/29 01:39:33;;;;;;;20.80;11.80;;;;;;;-1.30;93.01;101849.50;107787;1260;60484;-90
2022/12/29 01:42:02;;;;;;;19.60;10.40;;;;;;;-1.31;93.48;101849.85;107992;1263;59478;-87
2022/12/29 01:45:03;;;;;;;26.00;11.40;;;;;;;-1.31;94.26;101850.01;107985;1264;72117;-86
2022/12/29 01:47:58;;;;;;;24.10;11.40;;;;;;;-1.36;93.46;101848.49;108058;1269;70343;-85
2022/12/29 01:50:49;;;;;;;23.20;11.70;;;;;;;-1.38;93.11;101842.52;107876;1261;70446;-87
2022/12/29 01:53:32;;;;;;;22.80;11.20;;;;;;;-1.40;94.47;101832.63;107997;1263;71531;-88
2022/12/29 01:56:08;;;;;;;24.40;10.90;;;;;;;-1.39;95.19;101831.93;107865;1270;62085;-87
2022/12/29 01:58:44;;;;;;;20.70;11.90;;;;;;;-1.42;94.63;101830.77;107783;1260;60419;-89
2022/12/29 02:01:15;;;;;;;21.90;12.70;;;;;;;-1.46;93.47;101836.75;107932;1264;72907;-88
2022/12/29 02:03:46;;;;;;;20.90;11.90;;;;;;;-1.47;94.50;101842.74;107696;1260;72408;-88
2022/12/29 02:06:29;;;;;;;20.20;11.40;;;;;;;-1.51;94.65;101839.69;107918;1260;68623;-87
2022/12/29 02:08:58;;;;;;;23.50;12.30;;;;;;;-1.58;93.95;101833.56;107790;1262;73806;-87
2022/12/29 02:11:29;;;;;;;24.40;12.00;;;;;;;-1.61;95.66;101831.35;108041;1263;60238;-86
2022/12/29 02:13:59;;;;;;;29.50;12.80;;;;;;;-1.64;95.55;101825.04;108009;1260;59561;-86
2022/12/29 02:17:03;;;;;;;25.20;13.10;;;;;;;-1.64;95.86;101827.42;108005;1261;72755;-87
2022/12/29 02:19:56;;;;;;;24.90;12.50;;;;;;;-1.66;95.45;101830.00;108000;1258;71365;-88
2022/12/29 02:22:59;;;;;;;27.60;15.80;;;;;;;-1.69;95.71;101830.18;107976;1262;68986;-88
2022/12/29 02:26:02;;;;;;;24.50;14.60;;;;;;;-1.70;96.28;101832.58;107848;1264;73800;-88
2022/12/29 02:28:46;;;;;;;30.20;17.10;;;;;;;-1.75;95.51;101833.46;107910;1262;59950;-89
2022/12/29 02:31:30;;;;;;;32.20;18.70;;;;;;;-1.76;97.40;101826.98;108098;1261;58838;-87
2022/12/29 02:34:35;;;;;;;29.10;16.00;;;;;;;-1.81;96.39;101827.33;108070;1261;75080;-87
2022/12/29 02:37:17;;;;;;;26.00;16.10;;;;;;;-1.88;96.47;101824.96;107980;1257;70163;-87
2022/12/29 02:40:13;;;;;;;22.80;13.80;;;;;;;-1.94;96.42;101827.71;107677;1264;68656;-86
2022/12/29 02:43:21;;;;;;;28.00;12.80;;;;;;;-1.98;96.91;101821.23;108070;1257;71895;-88
2022/12/29 02:46:36;;;;;;;28.80;14.00;;;;;;;-2.06;95.99;101816.98;108046;1255;58996;-87
2022/12/29 02:49:29;;;;;;;24.90;13.00;;;;;;;-2.15;96.00;101815.15;107401;1270;60594;-87
2022/12/29 02:52:07;;;;;;;23.60;12.40;;;;;;;-2.22;96.76;101818.74;107945;1260;74878;-88
2022/12/29 02:54:42;;;;;;;25.20;12.50;;;;;;;-2.26;97.04;101816.36;108098;1260;68893;-85
2022/12/29 02:57:31;;;;;;;26.40;13.00;;;;;;;-2.32;96.00;101810.73;107974;1259;70440;-89
2022/12/29 03:00:07;;;;;;;21.50;12.70;;;;;;;-2.35;97.51;101815.00;107663;1267;73438;-90
2022/12/29 03:03:03;;;;;;;20.60;13.20;;;;;;;-2.34;98.13;101813.64;107778;1258;61129;-91
2022/12/29 03:06:18;;;;;;;24.70;13.40;;;;;;;-2.34;98.24;101806.81;107903;1255;61694;-85
2022/12/29 03:09:02;;;;;;;26.20;12.80;;;;;;;-2.44;97.69;101798.98;108024;1263;70906;-88
2022/12/29 03:17:39;;;;;;;24.70;13.80;;;;;;;-2.65;98.68;101803.61;107977;1260;74318;-86
2022/12/29 03:20:17;;;;;;;22.30;11.50;;;;;;;-2.65;99.38;101804.98;107777;1267;60137;-87
2022/12/29 03:22:51;;;;;;;18.50;11.50;;;;;;;-2.65;99.47;101802.42;107905;1264;58646;-87
2022/12/29 03:25:39;;;;;;;23.70;13.60;;;;;;;-2.65;99.75;101802.75;107942;1266;72395;-86
2022/12/29 03:28:21;;;;;;;23.50;11.80;;;;;;;-2.62;100.00;101799.50;107974;1261;71479;-86
2022/12/29 03:30:50;;;;;;;22.90;12.90;;;;;;;-2.57;100.00;101796.94;107793;1270;70055;-89
2022/12/29 03:33:27;;;;;;;24.70;11.90;;;;;;;-2.58;99.11;101800.88;107801;1264;71855;-90
2022/12/29 03:36:05;;;;;;;20.20;11.50;;;;;;;-2.68;97.20;101800.20;107880;1259;58272;-90
2022/12/29 03:39:18;;;;;;;20.50;11.70;;;;;;;-2.73;98.22;101796.77;108076;1261;60271;-90
2022/12/29 03:41:50;;;;;;;27.00;12.10;;;;;;;-2.74;99.79;101797.46;107959;1260;74025;-90
2022/12/29 03:44:21;;;;;;;21.50;11.70;;;;;;;-2.78;99.23;101792.87;107854;1264;73162;-88
2022/12/29 03:46:50;;;;;;;21.90;11.50;;;;;;;-2.82;98.71;101783.14;107738;1266;70017;-88
2022/12/29 03:49:19;;;;;;;20.90;11.00;;;;;;;-2.81;99.60;101782.29;107686;1266;71397;-89
2022/12/29 03:51:48;;;;;;;20.70;10.50;;;;;;;-2.80;99.60;101781.09;107774;1261;59686;-90
2022/12/29 03:54:20;;;;;;;22.40;12.30;;;;;;;-2.85;98.09;101782.98;107771;1263;60439;-88
2022/12/29 03:56:49;;;;;;;20.00;11.70;;;;;;;-2.94;97.07;101784.67;107608;1263;73000;-89
2022/12/29 03:59:23;;;;;;;23.40;12.50;;;;;;;-2.93;99.31;101781.95;107772;1258;73433;-87
2022/12/29 04:01:52;;;;;;;20.80;11.40;;;;;;;-2.89;100.00;101779.38;107791;1262;71439;-90
2022/12/29 04:04:22;;;;;;;25.40;12.30;;;;;;;-2.89;99.98;101780.58;107783;1261;72955;-90
2022/12/29 04:06:51;;;;;;;19.40;10.80;;;;;;;-2.94;99.05;101781.94;107710;1266;61940;-90
2022/12/29 04:09:20;;;;;;;25.00;12.20;;;;;;;-3.00;98.82;101782.45;107756;1260;60675;-89
2022/12/29 04:11:50;;;;;;;25.50;12.60;;;;;;;-2.98;99.98;101779.39;107719;1270;71459;-86
2022/12/29 04:14:19;;;;;;;23.10;11.50;;;;;;;-2.95;100.00;101776.33;107834;1258;72276;-85
2022/12/29 04:16:48;;;;;;;25.80;12.90;;;;;;;-2.96;99.97;101775.48;107711;1263;70645;-86
2022/12/29 04:19:17;;;;;;;27.00;14.30;;;;;;;-2.94;99.89;101773.60;107729;1265;74610;-87
2022/12/29 04:21:48;;;;;;;26.20;12.70;;;;;;;-2.97;99.42;101775.63;107882;1263;59185;-87
2022/12/29 04:24:17;;;;;;;21.50;12.00;;;;;;;-2.99;99.80;101778.04;107737;1264;58869;-88
2022/12/29 04:26:48;;;;;;;22.60;11.20;;;;;;;-3.06;98.38;101780.92;107776;1263;72457;-87
2022/12/29 04:29:34;;;;;;;22.30;11.40;;;;;;;-3.14;98.04;101782.10;107984;1261;69517;-87
2022/12/29 04:32:06;;;;;;;25.30;12.10;;;;;;;-3.18;98.53;101783.46;107971;1266;68896;-86
2022/12/29 04:34:39;;;;;;;23.80;12.90;;;;;;;-3.15;100.00;101784.83;107708;1266;72372;-86
2022/12/29 04:37:08;;;;;;;22.10;11.80;;;;;;;-3.14;100.00;101783.45;107865;1256;62616;-91
2022/12/29 04:39:37;;;;;;;24.40;13.80;;;;;;;-3.18;99.99;101783.11;107873;1264;61978;-90
2022/12/29 04:42:07;;;;;;;22.50;12.30;;;;;;;-3.26;99.45;101780.21;107781;1262;74888;-88
2022/12/29 04:44:36;;;;;;;24.80;12.50;;;;;;;-3.18;99.86;101788.91;108084;1255;71324;-82
2022/12/29 04:47:16;;;;;;;24.20;12.60;;;;;;;-3.22;99.87;101794.70;107862;1263;70285;-84
2022/12/29 04:49:55;;;;;;;20.80;12.40;;;;;;;-3.25;99.61;101797.23;108066;1256;74994;-83
2022/12/29 04:53:14;;;;;;;25.20;13.30;;;;;;;-3.29;99.86;101794.52;108087;1259;59384;-84
2022/12/29 04:55:49;;;;;;;23.10;12.20;;;;;;;-3.30;99.98;101788.55;108024;1260;60738;-85
2022/12/29 04:58:21;;;;;;;25.70;13.00;;;;;;;-3.31;99.80;101793.50;107894;1265;72173;-85
2022/12/29 05:00:52;;;;;;;24.10;12.80;;;;;;;-3.29;100.00;101800.30;107834;1264;70256;-86
2022/12/29 05:03:24;;;;;;;22.20;12.70;;;;;;;-3.28;100.00;101797.59;107620;1263;68901;-87
2022/12/29 05:05:55;;;;;;;24.00;11.70;;;;;;;-3.25;100.00;101802.19;107706;1260;71798;-90
2022/12/29 05:08:24;;;;;;;25.00;12.00;;;;;;;-3.20;100.00;101807.14;107431;1265;59711;-86
2022/12/29 05:10:57;;;;;;;23.70;12.20;;;;;;;-3.21;100.00;101806.63;107623;1267;61752;-86
2022/12/29 05:13:27;;;;;;;27.20;12.60;;;;;;;-3.24;100.00;101804.75;107618;1263;74031;-88
2022/12/29 05:15:56;;;;;;;31.70;14.30;;;;;;;-3.27;99.88;101805.08;108050;1261;69895;-87
2022/12/29 05:18:25;;;;;;;26.90;14.60;;;;;;;-3.27;99.89;101814.63;107841;1265;67787;-86
2022/12/29 05:20:54;;;;;;;29.80;14.50;;;;;;;-3.21;100.00;101811.23;107710;1262;73024;-85
2022/12/29 05:23:24;;;;;;;31.10;15.50;;;;;;;-3.17;100.00;101813.80;107890;1256;60017;-86
2022/12/29 05:26:00;;;;;;;24.50;14.10;;;;;;;-3.20;99.89;101818.89;107883;1266;58902;-88
2022/12/29 05:28:57;;;;;;;29.00;15.10;;;;;;;-3.26;100.00;101813.10;107755;1272;71612;-88
2022/12/29 05:31:27;;;;;;;31.50;14.70;;;;;;;-3.23;99.82;101820.94;107992;1261;72171;-89
2022/12/29 05:33:56;;;;;;;30.10;14.90;;;;;;;-3.24;100.00;101822.98;107544;1260;70334;-88
2022/12/29 05:36:25;;;;;;;26.70;13.60;;;;;;;-3.18;100.00;101823.33;107973;1259;72181;-87
2022/12/29 05:38:59;;;;;;;;;;;;;;;-3.18;100.00;101822.48;107808;1267;60476;-88
2022/12/29 05:41:28;;;;;;;23.50;13.60;;;;;;;-3.20;100.00;101823.15;107808;1263;61157;-86
2022/12/29 05:44:14;;;;;;;26.80;14.70;;;;;;;-3.23;99.98;101820.95;107856;1259;74996;-86
2022/12/29 05:47:29;;;;;;;27.20;15.00;;;;;;;-3.27;100.00;101822.30;107845;1257;70467;-89
2022/12/29 05:50:25;;;;;;;25.40;13.90;;;;;;;-3.23;100.00;101823.31;107916;1260;68691;-90
2022/12/29 05:53:45;;;;;;;31.10;15.10;;;;;;;-3.28;100.00;101827.56;107899;1263;71913;-90
2022/12/29 05:56:15;;;;;;;29.20;15.50;;;;;;;-3.32;100.00;101825.34;107731;1263;61276;-90
2022/12/29 05:58:47;;;;;;;35.40;17.10;;;;;;;-3.36;100.00;101833.00;107747;1269;60739;-85
2022/12/29 06:01:16;;;;;;;34.30;17.10;;;;;;;-3.39;99.61;101828.90;107938;1260;71543;-88
2022/12/29 06:03:45;;;;;;;35.50;17.10;;;;;;;-3.39;100.00;101835.73;107886;1266;71350;-88
2022/12/29 06:06:17;;;;;;;33.40;16.90;;;;;;;-3.47;100.00;101823.42;107942;1263;70065;-89
2022/12/29 06:08:46;;;;;;;39.70;21.30;;;;;;;-3.34;100.00;101829.25;107709;1262;73427;-89
2022/12/29 06:11:17;;;;;;;33.60;18.70;;;;;;;-3.30;100.00;101831.30;107962;1258;61349;-89
2022/12/29 06:13:51;;;;;;;35.70;18.60;;;;;;;-3.26;100.00;101828.77;107788;1266;58899;-89
2022/12/29 06:16:22;;;;;;;32.50;19.10;;;;;;;-3.16;100.00;101834.41;108003;1269;72776;-88
2022/12/29 06:18:54;;;;;;;36.60;18.40;;;;;;;-3.11;100.00;101831.53;107959;1263;72316;-85
2022/12/29 06:21:23;;;;;;;38.30;19.00;;;;;;;-3.02;100.00;101832.73;108001;1256;68546;-89
2022/12/29 06:23:53;;;;;;;35.20;18.90;;;;;;;-2.98;99.57;101831.20;107949;1260;71884;-90
2022/12/29 06:26:22;;;;;;;36.60;18.10;;;;;;;-2.95;98.95;101827.13;107802;1261;60500;-89
2022/12/29 06:28:52;;;;;;;39.50;20.50;;;;;;;-2.92;99.17;101818.95;107939;1262;60338;-91
2022/12/29 06:31:21;;;;;;;39.20;19.50;;;;;;;-2.88;99.11;101818.61;107948;1260;74456;-89
2022/12/29 06:33:51;;;;;;;43.00;21.50;;;;;;;-2.84;98.47;101817.59;108003;1257;72445;-86
2022/12/29 06:36:20;;;;;;;30.20;13.60;;;;;;;-2.78;98.54;101816.04;107974;1257;69507;-84
2022/12/29 06:38:52;;;;;;;35.10;16.70;;;;;;;-2.75;97.98;101824.07;107762;1263;73903;-83
2022/12/29 06:41:21;;;;;;;35.90;16.80;;;;;;;-2.73;97.76;101823.38;107950;1253;60818;-84
2022/12/29 06:44:58;;;;;;;28.70;14.90;;;;;;;-2.60;98.99;101822.88;107902;1263;58919;-88
2022/12/29 06:47:27;;;;;;;32.50;16.60;;;;;;;-2.51;98.57;101816.23;108058;1267;74464;-83
2022/12/29 06:49:56;;;;;;;28.70;16.90;;;;;;;-2.44;97.74;101821.32;107866;1260;70851;-85
2022/12/29 06:52:25;;;;;;;35.00;21.60;;;;;;;-2.47;97.17;101824.39;107791;1266;67799;-83
2022/12/29 06:54:55;;;;;;;32.40;17.00;;;;;;;-2.33;98.01;101824.38;107846;1261;72950;-85
2022/12/29 06:57:26;;;;;;;32.70;17.70;;;;;;;-2.22;97.20;101824.88;108071;1254;62834;-87
2022/12/29 06:59:57;;;;;;;33.90;17.10;;;;;;;-2.09;96.38;101825.53;108074;1260;62299;-82
2022/12/29 07:02:27;;;;;;;33.60;17.30;;;;;;;-2.04;95.72;101826.89;108040;1263;72795;-82
2022/12/29 07:04:57;;;;;;;35.50;17.50;;;;;;;-1.92;95.57;101826.69;107956;1258;72552;-85
2022/12/29 07:07:26;;;;;;;33.30;17.80;;;;;;;-1.78;95.49;101830.05;107977;1260;68290;-83
2022/12/29 07:09:55;;;;;;;31.60;14.80;;;;;;;-1.76;94.48;101830.39;107950;1263;73096;-82
2022/12/29 07:12:24;;;;;;;24.30;14.70;;;;;;;-1.66;94.24;101829.15;107951;1270;62357;-80
2022/12/29 07:14:53;;;;;;;28.20;14.40;;;;;;;-1.56;93.51;101823.13;107978;1263;61725;-83
2022/12/29 07:17:22;;;;;;;31.10;14.60;;;;;;;-1.40;93.43;101831.77;108025;1262;74785;-82
2022/12/29 07:19:51;;;;;;;23.50;13.70;;;;;;;-1.27;93.72;101829.99;107831;1261;72011;-84
2022/12/29 07:22:20;;;;;;;22.90;12.80;;;;;;;-1.21;92.23;101830.98;107828;1261;69805;-84
2022/12/29 07:24:49;;;;;;;29.00;14.10;;;;;;;-1.11;92.16;101832.29;107917;1263;71868;-83
2022/12/29 07:27:18;;;;;;;27.00;12.90;;;;;;;-1.00;91.81;101836.83;107792;1264;60457;-86
2022/12/29 07:29:47;;;;;;;25.70;13.30;;;;;;;-0.88;91.73;101840.52;107919;1259;60372;-83
2022/12/29 07:32:18;;;;;;;33.60;14.90;;;;;;;-0.79;90.81;101843.53;108001;1266;74776;-88
2022/12/29 07:34:49;;;;;;;26.00;12.10;;;;;;;-0.66;89.89;101836.42;107879;1263;71854;-86
2022/12/29 07:37:18;;;;;;;27.60;13.30;;;;;;;-0.58;88.97;101834.64;107835;1267;69609;-86
2022/12/29 07:39:47;;;;;;;23.90;11.80;;;;;;;-0.52;88.66;101828.77;107942;1259;71889;-81
2022/12/29 07:42:16;;;;;;;26.20;13.20;;;;;;;-0.40;88.78;101825.26;108054;1258;60229;-78
2022/12/29 07:44:51;;;;;;;21.30;11.00;;;;;;;-0.35;87.32;101825.19;107946;1267;60314;-80
2022/12/29 07:47:27;;;;;;;23.10;10.70;;;;;;;-0.22;87.22;101832.79;108015;1266;74128;-79
2022/12/29 07:49:56;;;;;;;25.50;12.60;;;;;;;-0.17;86.33;101832.89;107789;1260;71325;-78
2022/12/29 07:52:30;;;;;;;25.30;12.20;;;;;;;-0.04;86.92;101834.47;107892;1257;70440;-80
2022/12/29 07:54:59;;;;;;;22.90;11.40;;;;;;;0.06;86.90;101831.46;107885;1263;74258;-77
2022/12/29 07:57:28;;;;;;;24.80;11.80;;;;;;;0.15;86.21;101824.85;107867;1259;62265;-79
2022/12/29 07:59:59;;;;;;;23.30;11.90;;;;;;;0.30;85.77;101826.56;107833;1265;60780;-79
2022/12/29 08:02:39;;;;;;;24.70;12.70;;;;;;;0.36;84.74;101819.79;107882;1257;74284;-84
2022/12/29 08:05:08;;;;;;;24.70;11.90;;;;;;;0.42;84.71;101816.98;107784;1262;73483;-76
2022/12/29 08:07:37;;;;;;;25.60;12.90;;;;;;;0.55;85.21;101813.38;107746;1257;70335;-81
2022/12/29 08:10:10;;;;;;;21.60;11.80;;;;;;;0.62;84.28;101810.37;107773;1263;71810;-80
2022/12/29 08:12:39;;;;;;;21.80;12.20;;;;;;;0.67;83.38;101811.16;107779;1264;61197;-80
2022/12/29 08:15:11;;;;;;;24.70;11.70;;;;;;;0.77;83.29;101812.23;107768;1257;60041;-79
2022/12/29 08:17:40;;;;;;;26.40;11.90;;;;;;;0.79;82.88;101810.14;107703;1266;73272;-79
2022/12/29 08:20:09;;;;;;;27.20;12.20;;;;;;;0.92;83.56;101806.86;107747;1260;72528;-77
2022/12/29 08:22:40;;;;;;;25.10;11.30;;;;;;;1.03;82.92;101804.97;107618;1262;68958;-76
2022/12/29 08:25:09;;;;;;;22.00;12.70;;;;;;;1.12;82.46;101804.84;107630;1266;72673;-76
2022/12/29 08:27:38;;;;;;;22.50;12.50;;;;;;;1.18;82.03;101804.23;107670;1262;60107;-75
2022/12/29 08:30:08;;;;;;;22.80;12.70;;;;;;;1.17;81.59;101795.14;107792;1258;58874;-81
2022/12/29 08:32:37;;;;;;;25.70;12.30;;;;;;;1.25;81.68;101792.27;107716;1267;72457;-79
2022/12/29 08:35:06;;;;;;;33.10;13.10;;;;;;;1.30;80.85;101790.64;107818;1264;70244;-78
2022/12/29 08:37:35;;;;;;;26.10;11.80;;;;;;;1.41;81.61;101788.41;107792;1263;68505;-78
2022/12/29 08:40:05;;;;;;;30.40;14.50;;;;;;;1.35;80.19;101779.05;107810;1260;71111;-77
2022/12/29 08:42:34;;;;;;;24.70;12.40;;;;;;;1.45;81.09;101775.63;107841;1258;58143;-77
2022/12/29 08:45:04;;;;;;;20.50;11.80;;;;;;;1.60;80.73;101770.39;107897;1266;58840;-80
2022/12/29 08:47:32;;;;;;;25.20;12.30;;;;;;;1.67;79.79;101763.73;107685;1262;73387;-79
2022/12/29 08:50:02;;;;;;;25.40;12.70;;;;;;;1.71;79.37;101757.81;107977;1258;71187;-77
2022/12/29 08:52:31;;;;;;;30.70;12.30;;;;;;;1.82;80.32;101762.08;107642;1264;70183;-76
2022/12/29 08:55:00;;;;;;;21.60;11.70;;;;;;;1.86;78.98;101763.89;107812;1263;72645;-77
2022/12/29 08:57:30;;;;;;;27.50;12.80;;;;;;;1.85;79.00;101768.19;107840;1266;58660;-76
2022/12/29 09:00:11;;;;;;;23.80;13.00;;;;;;;1.92;78.64;101771.84;107735;1254;58166;-79
2022/12/29 09:02:40;;;;;;;24.50;12.50;;;;;;;2.02;79.18;101764.09;107716;1256;72912;-76
2022/12/29 09:05:09;;;;;;;23.50;11.60;;;;;;;2.05;78.76;101755.26;107885;1260;69992;-82
2022/12/29 09:07:41;;;;;;;30.80;13.00;;;;;;;2.15;78.15;101755.23;107857;1263;67876;-84
2022/12/29 09:10:16;;;;;;;23.80;13.30;;;;;;;2.28;78.52;101753.39;107788;1260;73605;-83
2022/12/29 09:12:45;;;;;;;25.70;13.30;;;;;;;2.42;77.83;101747.59;108041;1266;60630;-85
2022/12/29 09:15:15;;;;;;;23.00;11.90;;;;;;;2.49;77.17;101744.70;107828;1263;60796;-73
2022/12/29 09:17:44;;;;;;;28.10;13.40;;;;;;;2.53;76.67;101737.05;107802;1256;74153;-77
2022/12/29 09:20:17;;;;;;;26.00;13.50;;;;;;;2.52;76.15;101736.04;107815;1267;72965;-77
2022/12/29 09:22:47;;;;;;;26.00;13.30;;;;;;;2.66;76.91;101732.96;107933;1255;69085;-75
2022/12/29 09:25:16;;;;;;;29.20;14.50;;;;;;;2.81;75.86;101732.42;107885;1263;74104;-75
2022/12/29 09:27:47;;;;;;;25.20;12.60;;;;;;;2.91;75.97;101727.88;107861;1255;60883;-77
2022/12/29 09:30:16;;;;;;;28.40;14.10;;;;;;;3.05;75.86;101726.52;107930;1266;60072;-79
2022/12/29 09:32:45;;;;;;;27.20;14.10;;;;;;;3.14;74.84;101724.03;107905;1253;73494;-76
2022/12/29 09:35:20;;;;;;;28.90;14.30;;;;;;;3.31;74.85;101724.65;108003;1258;72150;-77
2022/12/29 09:37:49;;;;;;;28.20;14.30;;;;;;;3.36;74.10;101723.46;107915;1255;70223;-81
2022/12/29 09:40:30;;;;;;;25.70;15.10;;;;;;;3.44;73.38;101723.78;107894;1264;71148;-82
2022/12/29 09:43:21;;;;;;;21.30;12.40;;;;;;;3.60;72.58;101725.43;107786;1260;58301;-77
2022/12/29 09:46:25;;;;;;;25.20;15.00;;;;;;;3.60;71.46;101728.00;107986;1257;60281;-78
2022/12/29 09:49:07;;;;;;;28.60;14.30;;;;;;;3.76;71.32;101722.92;107845;1260;63732;-77
2022/12/29 09:51:40;;;;;;;26.90;14.20;;;;;;;3.91;71.56;101717.52;108067;1258;60812;-81
2022/12/29 09:54:24;;;;;;;29.30;14.60;;;;;;;4.03;70.20;101707.68;107771;1263;70389;-81
2022/12/29 09:56:54;;;;;;;30.80;15.20;;;;;;;4.13;69.23;101708.92;107858;1270;62806;-80
2022/12/29 09:59:40;;;;;;;26.60;13.90;;;;;;;4.26;69.20;101704.58;108043;1254;60691;-78
2022/12/29 10:02:34;;;;;;;32.10;15.90;;;;;;;4.39;69.37;101700.36;107919;1268;57701;-80
2022/12/29 10:05:12;;;;;;;29.60;15.30;;;;;;;4.53;69.55;101695.11;107856;1266;63548;-82
2022/12/29 10:08:05;;;;;;;25.30;13.90;;;;;;;4.64;69.51;101692.85;107933;1258;60837;-77
2022/12/29 10:10:56;;;;;;;27.90;14.40;;;;;;;4.73;69.02;101689.97;108025;1257;59975;-79
2022/12/29 10:14:17;;;;;;;31.20;14.50;;;;;;;4.82;68.33;101684.67;107937;1261;62722;-76
2022/12/29 10:17:04;;;;;;;30.40;14.70;;;;;;;4.81;67.26;101681.77;107740;1266;60307;-77
2022/12/29 10:19:50;;;;;;;32.90;14.20;;;;;;;4.77;67.07;101684.16;107982;1260;57691;-77
2022/12/29 10:22:38;;;;;;;27.60;15.10;;;;;;;4.85;68.30;101683.36;106638;1263;1529811;-79
2022/12/29 10:25:19;;;;;;;26.40;14.30;;;;;;;4.86;67.60;101677.46;107977;1254;62350;-81
2022/12/29 10:27:54;;;;;;;28.80;14.30;;;;;;;5.03;68.28;101672.76;108032;1258;59331;-79
2022/12/29 10:30:23;;;;;;;26.10;13.70;;;;;;;5.09;67.14;101666.02;107843;1266;73016;-79
2022/12/29 10:32:58;;;;;;;25.80;13.60;;;;;;;5.26;66.62;101658.16;107969;1263;58342;-77
2022/12/29 10:35:37;;;;;;;30.60;14.90;;;;;;;5.42;65.42;101655.31;107974;1257;60267;-77
2022/12/29 10:38:37;;;;;;;28.70;16.00;;;;;;;5.67;65.72;101652.86;107817;1263;74267;-77
2022/12/29 10:41:27;;;;;;;30.40;16.20;;;;;;;5.87;64.25;101649.73;108113;1253;62007;-78
2022/12/29 10:43:57;;;;;;;29.20;14.30;;;;;;;5.95;65.10;101645.77;107853;1262;59935;-78
2022/12/29 10:46:36;;;;;;;26.90;13.90;;;;;;;6.13;63.70;101641.64;107907;1259;73941;-79
2022/12/29 10:49:16;;;;;;;26.60;15.60;;;;;;;6.12;62.96;101641.34;107812;1269;60760;-78
2022/12/29 10:51:51;;;;;;;28.00;14.00;;;;;;;6.33;64.17;101635.67;107794;1265;61892;-78
2022/12/29 10:54:46;;;;;;;25.40;13.90;;;;;;;6.58;62.77;101628.24;107944;1266;64225;-77
2022/12/29 10:57:48;;;;;;;32.80;15.00;;;;;;;6.68;62.01;101626.11;107931;1260;71357;-77
2022/12/29 11:00:20;;;;;;;33.50;15.50;;;;;;;7.00;60.81;101623.03;107843;1266;60467;-77
2022/12/29 11:03:27;;;;;;;30.80;14.40;;;;;;;7.09;60.39;101620.54;107790;1261;73945;-79
2022/12/29 11:06:02;;;;;;;31.10;13.80;;;;;;;7.05;60.28;101618.66;107960;1263;57748;-76
2022/12/29 11:08:38;;;;;;;30.80;15.00;;;;;;;7.64;62.23;101620.70;107954;1258;60119;-78
2022/12/29 11:11:10;;;;;;;29.20;15.10;;;;;;;7.92;61.63;101625.81;107998;1259;65532;-77
2022/12/29 11:14:10;;;;;;;26.40;15.90;;;;;;;7.99;58.93;101627.44;108005;1253;71346;-77
2022/12/29 11:16:41;;;;;;;26.10;16.00;;;;;;;7.66;57.76;101627.21;107924;1256;70874;-79
2022/12/29 11:19:26;;;;;;;29.40;15.10;;;;;;;8.14;59.04;101622.52;107686;1263;62370;-80
2022/12/29 11:21:55;;;;;;;28.10;15.90;;;;;;;8.46;57.70;101622.73;107807;1266;57743;-77
2022/12/29 11:24:28;;;;;;;29.70;15.20;;;;;;;8.57;54.94;101621.85;107664;1257;57705;-77
2022/12/29 11:27:24;;;;;;;25.90;14.90;;;;;;;8.62;55.73;101614.67;107900;1263;74274;-77
2022/12/29 11:29:54;;;;;;;35.90;15.60;;;;;;;9.18;56.90;101610.92;107971;1257;61549;-77
2022/12/29 11:32:31;;;;;;;26.20;15.30;;;;;;;9.12;53.57;101605.00;107928;1269;70578;-77
2022/12/29 11:35:04;;;;;;;28.20;15.10;;;;;;;9.22;53.14;101597.17;107976;1262;62846;-75
2022/12/29 11:37:39;;;;;;;27.30;15.10;;;;;;;9.11;53.18;101599.48;107896;1260;61209;-77
2022/12/29 11:40:21;;;;;;;30.40;15.90;;;;;;;9.11;53.73;101601.05;107943;1263;57661;-79
2022/12/29 11:43:33;;;;;;;26.40;13.90;;;;;;;9.57;53.42;101598.11;107934;1259;64860;-75
2022/12/29 11:46:04;;;;;;;24.30;14.20;;;;;;;9.48;53.70;101598.57;108025;1254;62411;-76
2022/12/29 11:48:40;;;;;;;45.60;17.30;;;;;;;9.99;52.66;101593.69;107714;1258;70196;-76
2022/12/29 11:51:11;;;;;;;27.90;14.30;;;;;;;9.81;51.57;101593.30;107817;1264;74090;-74
2022/12/29 11:53:51;;;;;;;22.30;13.00;;;;;;;10.10;51.54;101587.52;107938;1258;57749;-77
2022/12/29 11:56:32;;;;;;;23.50;13.90;;;;;;;10.39;51.60;101579.09;107887;1267;60400;-78
2022/12/29 11:59:29;;;;;;;29.80;14.10;;;;;;;10.42;51.94;101569.16;107895;1263;74304;-79
2022/12/29 12:02:02;;;;;;;29.50;14.70;;;;;;;10.42;50.97;101562.72;108054;1266;61937;-79
2022/12/29 12:04:37;;;;;;;24.90;14.00;;;;;;;10.54;50.58;101561.52;107922;1262;70405;-78
2022/12/29 12:07:30;;;;;;;23.80;13.40;;;;;;;10.38;49.86;101560.71;107792;1257;72951;-76
2022/12/29 12:10:04;;;;;;;29.90;14.60;;;;;;;10.33;50.84;101553.31;107791;1260;57784;-76
2022/12/29 12:12:53;;;;;;;24.10;13.70;;;;;;;10.58;50.91;101548.02;107799;1257;61001;-78
2022/12/29 12:15:42;;;;;;;23.20;13.70;;;;;;;10.49;50.32;101546.83;107651;1257;74033;-78
2022/12/29 12:18:17;;;;;;;30.90;14.80;;;;;;;10.49;50.94;101538.82;107844;1258;71994;-75
2022/12/29 12:20:50;;;;;;;29.80;14.60;;;;;;;10.53;50.87;101536.64;107877;1257;70427;-75
2022/12/29 12:24:00;;;;;;;25.70;14.20;;;;;;;10.57;51.16;101539.23;107868;1262;62677;-76